Time;durP1;ratioP1;P1;durP2;ratioP2;P2;SDS_P1;SDS_P2;PMS_P1;PMS_P2;Temp;Humidity;BMP_temperature;BMP_pressure;BME280_temperature;BME280_humidity;BME280_pressure;Samples;Min_cycle;Max_cycle;Signal;HPM_P1;HPM_P2
2022/01/26 00:07:52;;;;;;;74.60;23.30;;;3.60;99.90;;;;;;4959051;28;20059;-68
2022/01/26 00:10:18;;;;;;;81.73;25.70;;;3.60;99.90;;;;;;4956046;28;20113;-68
2022/01/26 00:12:43;;;;;;;75.10;23.90;;;3.60;99.90;;;;;;4959077;28;20038;-66
2022/01/26 00:15:10;;;;;;;73.60;25.17;;;3.60;99.90;;;;;;4956540;28;20129;-67
2022/01/26 00:17:36;;;;;;;67.78;22.15;;;3.60;99.90;;;;;;4960269;28;20105;-65
2022/01/26 00:20:13;;;;;;;78.03;25.63;;;3.60;99.90;;;;;;4951739;28;20147;-66
2022/01/26 00:38:41;;;;;;;65.90;21.65;;;3.60;99.90;;;;;;4953770;28;20082;-67
2022/01/26 00:41:12;;;;;;;76.28;23.52;;;3.60;99.90;;;;;;4955248;28;20497;-67
2022/01/26 00:43:43;;;;;;;82.05;24.30;;;3.60;99.90;;;;;;4954075;28;21481;-67
2022/01/26 00:46:09;;;;;;;67.15;22.42;;;3.60;99.90;;;;;;4956414;28;20070;-68
2022/01/26 00:48:37;;;;;;;67.27;23.70;;;3.60;99.90;;;;;;4957865;28;20099;-69
2022/01/26 00:51:06;;;;;;;78.82;24.05;;;3.60;99.90;;;;;;4955593;28;20043;-68
2022/01/26 00:53:36;;;;;;;75.75;23.90;;;3.60;99.90;;;;;;4953936;28;20093;-68
2022/01/26 00:56:12;;;;;;;72.82;23.13;;;3.60;99.90;;;;;;4999264;23;20043;-81
2022/01/26 00:58:38;;;;;;;75.07;25.60;;;3.60;99.90;;;;;;4968182;28;20039;-81
2022/01/26 01:01:04;;;;;;;72.47;23.40;;;3.60;99.90;;;;;;4969363;23;20094;-66
2022/01/26 01:03:33;;;;;;;77.32;23.98;;;3.60;99.90;;;;;;4981919;28;20129;-66
2022/01/26 01:08:25;;;;;;;85.37;26.83;;;3.60;99.90;;;;;;4974702;28;20046;-67
2022/01/26 01:10:53;;;;;;;73.80;25.10;;;3.60;99.90;;;;;;4970807;28;20042;-66
2022/01/26 01:13:23;;;;;;;82.72;24.90;;;3.60;99.90;;;;;;4976363;28;20475;-66
2022/01/26 01:15:50;;;;;;;76.53;24.08;;;3.50;99.90;;;;;;4984481;28;20489;-66
2022/01/26 01:18:25;;;;;;;78.13;24.40;;;3.50;99.90;;;;;;4982435;28;20116;-66
2022/01/26 01:23:45;;;;;;;79.85;26.52;;;3.50;99.90;;;;;;4981995;28;20395;-67
2022/01/26 01:31:16;;;;;;;84.22;24.20;;;3.50;99.90;;;;;;4984145;28;20046;-67
2022/01/26 01:33:46;;;;;;;79.93;24.90;;;3.50;99.90;;;;;;4974362;28;20061;-66
2022/01/26 01:36:12;;;;;;;71.65;25.60;;;3.60;99.90;;;;;;4976504;28;20038;-67
2022/01/26 01:38:43;;;;;;;76.63;23.90;;;3.50;99.90;;;;;;4973424;28;20177;-67
2022/01/26 01:41:09;;;;;;;74.93;23.15;;;3.50;99.90;;;;;;4982989;28;20038;-67
2022/01/26 01:43:35;;;;;;;77.93;23.93;;;3.50;99.90;;;;;;4982384;28;20482;-67
2022/01/26 01:46:01;;;;;;;79.97;25.98;;;3.50;99.90;;;;;;4987071;28;20294;-67
2022/01/26 01:48:30;;;;;;;81.57;24.23;;;3.50;99.90;;;;;;4979613;28;20046;-67
2022/01/26 01:50:59;;;;;;;84.05;25.77;;;3.50;99.90;;;;;;4979328;28;20555;-67
2022/01/26 01:53:34;;;;;;;73.38;24.08;;;3.50;99.90;;;;;;4975392;28;20054;-67
2022/01/26 01:56:00;;;;;;;72.38;22.42;;;3.50;99.90;;;;;;4979320;28;20038;-67
2022/01/26 01:58:26;;;;;;;76.32;24.45;;;3.50;99.90;;;;;;4979208;28;20042;-69
2022/01/26 02:00:56;;;;;;;71.45;23.05;;;3.50;99.90;;;;;;4976217;28;20410;-69
2022/01/26 02:03:22;;;;;;;72.80;24.35;;;3.50;99.90;;;;;;4977585;28;20045;-69
2022/01/26 02:05:47;;;;;;;83.60;26.02;;;3.50;99.90;;;;;;4983881;28;20042;-69
2022/01/26 02:08:13;;;;;;;65.90;22.17;;;3.50;99.90;;;;;;4977287;28;20486;-69
2022/01/26 02:10:39;;;;;;;67.73;24.30;;;3.50;99.90;;;;;;4984180;28;20442;-69
2022/01/26 02:13:14;;;;;;;68.50;24.97;;;3.50;99.90;;;;;;4980725;28;20041;-69
2022/01/26 02:15:55;;;;;;;71.47;24.27;;;3.50;99.90;;;;;;4978072;28;20655;-69
2022/01/26 02:51:55;;;;;;;63.75;24.30;;;3.60;99.90;;;;;;4987351;28;20073;-69
2022/01/26 03:05:09;;;;;;;55.75;21.42;;;3.60;99.90;;;;;;4960677;28;20050;-67
2022/01/26 03:10:05;;;;;;;57.80;23.97;;;3.60;99.90;;;;;;4975690;28;20093;-67
2022/01/26 03:12:57;;;;;;;55.05;22.70;;;3.60;99.90;;;;;;4991274;28;20418;-67
2022/01/26 03:15:20;;;;;;;53.85;22.20;;;3.60;99.90;;;;;;4983547;28;20042;-67
2022/01/26 03:18:10;;;;;;;52.42;21.05;;;3.50;99.90;;;;;;4982091;28;20042;-67
2022/01/26 03:20:36;;;;;;;55.03;19.98;;;3.50;99.90;;;;;;4976257;28;20046;-67
2022/01/26 03:28:47;;;;;;;60.40;20.55;;;3.50;99.90;;;;;;4980672;28;20086;-67
2022/01/26 03:34:02;;;;;;;57.75;20.13;;;3.50;99.90;;;;;;4983836;28;20054;-67
2022/01/26 03:36:31;;;;;;;61.85;21.42;;;3.50;99.90;;;;;;4982862;28;20042;-67
2022/01/26 03:39:09;;;;;;;53.35;19.13;;;3.50;99.90;;;;;;4987083;28;20034;-67
2022/01/26 03:42:05;;;;;;;58.80;20.10;;;3.50;99.90;;;;;;4978391;28;20042;-67
2022/01/26 03:44:22;;;;;;;53.17;19.55;;;3.50;99.90;;;;;;4980304;28;20046;-67
2022/01/26 03:46:49;;;;;;;58.97;20.07;;;3.50;99.90;;;;;;4977673;28;20377;-67
2022/01/26 03:49:15;;;;;;;58.13;21.38;;;3.50;99.90;;;;;;4981509;28;21459;-69
2022/01/26 03:51:42;;;;;;;51.87;20.23;;;3.50;99.90;;;;;;4984513;28;20050;-69
2022/01/26 03:54:08;;;;;;;60.40;21.60;;;3.50;99.90;;;;;;4980724;28;20515;-69
2022/01/26 03:56:34;;;;;;;61.90;20.63;;;3.50;99.90;;;;;;4984121;28;20565;-69
2022/01/26 03:59:00;;;;;;;55.22;19.13;;;3.50;99.90;;;;;;4987810;28;20492;-69
2022/01/26 04:01:26;;;;;;;62.13;18.90;;;3.50;99.90;;;;;;4981436;28;20041;-69
2022/01/26 04:03:52;;;;;;;60.42;19.95;;;3.40;99.90;;;;;;4986892;28;20095;-69
2022/01/26 04:06:18;;;;;;;55.57;19.60;;;3.40;99.90;;;;;;4982713;28;20110;-69
2022/01/26 04:08:44;;;;;;;61.33;19.50;;;3.40;99.90;;;;;;4984822;28;20049;-69
2022/01/26 04:13:49;;;;;;;60.53;19.73;;;3.40;99.90;;;;;;4982913;28;20728;-69
2022/01/26 04:16:15;;;;;;;59.58;19.38;;;3.40;99.90;;;;;;4983483;28;20255;-69
2022/01/26 04:18:41;;;;;;;60.43;20.17;;;3.40;99.90;;;;;;4977586;28;20234;-69
2022/01/26 04:21:31;;;;;;;;;;;3.40;99.90;;;;;;4982279;28;20065;-69
2022/01/26 04:24:10;;;;;;;57.60;18.67;;;3.40;99.90;;;;;;5000227;28;19926;-69
2022/01/26 04:26:44;;;;;;;62.15;19.58;;;3.30;99.90;;;;;;4976475;28;20061;-69
2022/01/26 04:29:15;;;;;;;55.97;18.92;;;3.30;99.90;;;;;;4985607;28;20061;-69
2022/01/26 04:31:41;;;;;;;63.33;18.38;;;3.40;99.90;;;;;;4976068;28;20391;-69
2022/01/26 04:34:06;;;;;;;55.53;19.27;;;3.30;99.90;;;;;;4985095;28;20235;-70
2022/01/26 04:36:38;;;;;;;51.17;17.53;;;3.30;99.90;;;;;;4980401;28;20467;-70
2022/01/26 04:39:08;;;;;;;61.50;18.88;;;3.30;99.90;;;;;;4983536;28;20050;-69
2022/01/26 04:44:10;;;;;;;53.75;17.52;;;3.30;99.90;;;;;;4974296;28;20066;-69
2022/01/26 04:46:36;;;;;;;54.60;18.60;;;3.20;99.90;;;;;;4974099;28;20403;-69
2022/01/26 04:49:02;;;;;;;61.83;21.33;;;3.20;99.90;;;;;;4992582;28;20046;-69
2022/01/26 04:51:28;;;;;;;62.15;21.40;;;3.20;99.90;;;;;;4969222;28;20246;-69
2022/01/26 04:53:54;;;;;;;51.42;16.65;;;3.20;99.90;;;;;;4981207;28;20046;-69
2022/01/26 04:56:19;;;;;;;53.90;18.27;;;3.20;99.90;;;;;;4973538;28;20412;-69
2022/01/26 04:58:45;;;;;;;56.50;19.23;;;3.20;99.90;;;;;;4981604;28;20085;-69
2022/01/26 05:01:11;;;;;;;59.28;19.20;;;3.20;99.90;;;;;;4975689;28;20042;-69
2022/01/26 05:03:37;;;;;;;55.83;19.07;;;3.10;99.90;;;;;;4984537;28;20423;-69
2022/01/26 05:06:02;;;;;;;59.83;19.37;;;3.20;99.90;;;;;;4982478;28;20042;-69
2022/01/26 05:08:28;;;;;;;56.67;18.50;;;3.20;99.90;;;;;;4978149;28;20045;-69
2022/01/26 05:10:53;;;;;;;50.23;17.47;;;3.20;99.90;;;;;;4979791;28;20487;-69
2022/01/26 05:13:19;;;;;;;53.50;18.57;;;3.20;99.90;;;;;;4980155;28;20703;-69
2022/01/26 05:15:45;;;;;;;56.90;19.83;;;3.20;99.90;;;;;;4978111;28;20057;-69
2022/01/26 05:18:11;;;;;;;62.20;20.33;;;3.20;99.90;;;;;;4981215;28;20650;-69
2022/01/26 05:20:37;;;;;;;52.15;18.20;;;3.20;99.90;;;;;;4978768;28;20074;-70
2022/01/26 05:23:03;;;;;;;60.17;20.35;;;3.20;99.90;;;;;;4983400;28;20088;-69
2022/01/26 05:25:29;;;;;;;61.35;18.40;;;3.20;99.90;;;;;;4985190;28;20034;-69
2022/01/26 05:27:54;;;;;;;54.47;17.97;;;3.20;99.90;;;;;;4981974;28;20124;-69
2022/01/26 05:30:20;;;;;;;51.20;18.33;;;3.20;99.90;;;;;;4980215;28;20094;-69
2022/01/26 05:32:46;;;;;;;56.65;18.65;;;3.20;99.90;;;;;;4983088;28;20454;-69
2022/01/26 05:35:12;;;;;;;54.73;18.23;;;3.20;99.90;;;;;;4984772;28;20119;-69
2022/01/26 05:37:39;;;;;;;56.80;19.23;;;3.20;99.90;;;;;;4988695;28;20178;-69
2022/01/26 05:40:06;;;;;;;57.65;18.95;;;3.20;99.90;;;;;;4972559;28;20046;-69
2022/01/26 05:42:34;;;;;;;53.90;18.17;;;3.20;99.90;;;;;;4983475;28;20172;-69
2022/01/26 05:45:03;;;;;;;54.75;17.15;;;3.20;99.90;;;;;;4983615;28;20046;-69
2022/01/26 05:47:31;;;;;;;53.35;18.10;;;3.10;99.90;;;;;;4983940;28;20479;-69
2022/01/26 05:49:57;;;;;;;58.58;18.10;;;3.10;99.90;;;;;;4975769;28;20050;-69
2022/01/26 05:52:23;;;;;;;50.53;19.37;;;3.10;99.90;;;;;;4975911;28;20705;-69
2022/01/26 05:54:48;;;;;;;58.77;18.53;;;3.10;99.90;;;;;;4979157;28;20285;-69
2022/01/26 05:57:14;;;;;;;57.93;19.00;;;3.10;99.90;;;;;;4986746;28;20035;-69
2022/01/26 05:59:40;;;;;;;60.97;21.20;;;3.10;99.90;;;;;;4998557;28;20096;-69
2022/01/26 06:02:05;;;;;;;54.27;19.67;;;3.10;99.90;;;;;;4986766;28;20050;-69
2022/01/26 06:04:31;;;;;;;64.30;19.30;;;3.10;99.90;;;;;;4980890;28;20050;-69
2022/01/26 06:06:58;;;;;;;54.50;19.38;;;3.10;99.90;;;;;;4982485;28;20037;-69
2022/01/26 06:09:24;;;;;;;61.47;18.65;;;3.10;99.90;;;;;;4981098;28;20054;-69
2022/01/26 06:11:49;;;;;;;62.20;20.83;;;3.20;99.90;;;;;;4984271;28;20038;-69
2022/01/26 06:14:15;;;;;;;60.00;19.83;;;3.10;99.90;;;;;;4987395;28;20088;-69
2022/01/26 06:16:40;;;;;;;61.63;19.13;;;3.20;99.90;;;;;;4992991;28;20037;-69
2022/01/26 06:19:06;;;;;;;61.97;21.07;;;3.10;99.90;;;;;;4980112;28;20038;-69
2022/01/26 06:21:31;;;;;;;60.43;19.80;;;3.20;99.90;;;;;;4976134;28;20046;-69
2022/01/26 06:23:58;;;;;;;57.13;19.27;;;3.20;99.90;;;;;;4984174;28;20141;-69
2022/01/26 06:26:24;;;;;;;56.30;19.52;;;3.20;99.90;;;;;;4980323;28;20049;-69
2022/01/26 06:28:50;;;;;;;60.60;22.23;;;3.20;99.90;;;;;;4980833;28;20042;-69
2022/01/26 06:31:16;;;;;;;61.85;20.65;;;3.20;99.90;;;;;;4980620;28;20120;-69
2022/01/26 06:33:45;;;;;;;62.58;20.98;;;3.20;99.90;;;;;;4979617;28;20132;-69
2022/01/26 06:36:12;;;;;;;68.90;23.17;;;3.20;99.90;;;;;;5001711;28;20102;-69
2022/01/26 06:38:42;;;;;;;61.85;21.60;;;3.20;99.90;;;;;;4982608;28;20045;-69
2022/01/26 06:41:08;;;;;;;69.03;22.38;;;3.30;99.90;;;;;;4980457;28;20060;-70
2022/01/26 06:43:34;;;;;;;65.93;21.23;;;3.20;99.90;;;;;;4977700;28;20434;-69
2022/01/26 06:46:04;;;;;;;66.95;22.48;;;3.20;99.90;;;;;;4988374;28;20296;-69
2022/01/26 06:51:09;;;;;;;59.75;20.65;;;3.20;99.90;;;;;;4982903;28;20400;-71
2022/01/26 06:53:35;;;;;;;58.70;20.02;;;3.30;99.90;;;;;;4985606;28;20042;-70
2022/01/26 06:56:00;;;;;;;61.87;21.47;;;3.30;99.90;;;;;;4997438;23;20537;-68
2022/01/26 06:58:26;;;;;;;71.73;24.53;;;3.30;99.90;;;;;;4971610;28;20075;-69
2022/01/26 07:00:52;;;;;;;61.60;23.10;;;3.30;99.90;;;;;;4956250;28;20051;-66
2022/01/26 07:03:17;;;;;;;65.70;23.87;;;3.30;99.90;;;;;;4965835;28;20062;-69
2022/01/26 07:05:44;;;;;;;72.90;22.27;;;3.30;99.90;;;;;;4966531;28;20102;-66
2022/01/26 07:08:09;;;;;;;69.70;24.42;;;3.30;99.90;;;;;;4967437;28;20050;-67
2022/01/26 07:10:35;;;;;;;65.03;22.10;;;3.30;99.90;;;;;;4972307;28;20047;-67
2022/01/26 07:13:02;;;;;;;71.80;23.17;;;3.30;99.90;;;;;;4970062;28;20047;-66
2022/01/26 07:21:22;;;;;;;69.13;23.90;;;3.40;99.90;;;;;;4964000;28;20055;-67
2022/01/26 07:23:48;;;;;;;72.80;24.83;;;3.40;99.90;;;;;;4966016;28;20041;-67
2022/01/26 07:26:13;;;;;;;76.83;26.23;;;3.40;99.90;;;;;;4969774;28;20348;-65
2022/01/26 07:28:40;;;;;;;71.40;24.70;;;3.40;99.90;;;;;;4969243;28;20039;-67
2022/01/26 07:31:06;;;;;;;64.82;24.90;;;3.40;99.90;;;;;;4958771;28;20089;-66
2022/01/26 07:33:32;;;;;;;65.70;26.65;;;3.50;99.90;;;;;;4964697;28;20097;-66
2022/01/26 07:35:59;;;;;;;76.43;28.23;;;3.50;99.90;;;;;;4967276;28;20050;-66
2022/01/26 07:38:27;;;;;;;80.57;29.42;;;3.50;99.90;;;;;;4965417;28;20069;-67
2022/01/26 07:40:54;;;;;;;81.18;29.70;;;3.60;99.90;;;;;;4964570;28;20117;-67
2022/01/26 07:43:20;;;;;;;68.60;26.55;;;3.60;99.90;;;;;;4966163;28;20035;-65
2022/01/26 07:45:45;;;;;;;78.07;29.90;;;3.60;99.90;;;;;;4962802;28;20043;-66
2022/01/26 07:48:11;;;;;;;80.70;28.07;;;3.60;99.90;;;;;;4964087;28;20478;-66
2022/01/26 07:50:37;;;;;;;80.73;29.33;;;3.60;99.90;;;;;;4963951;28;20377;-67
2022/01/26 07:53:04;;;;;;;74.03;27.80;;;3.70;99.90;;;;;;4959377;28;20102;-67
2022/01/26 07:55:31;;;;;;;75.25;27.25;;;3.70;99.90;;;;;;4961502;28;20038;-68
2022/01/26 07:57:57;;;;;;;;;;;3.70;99.90;;;;;;4957872;28;20055;-67
2022/01/26 08:00:23;;;;;;;78.50;28.40;;;3.70;99.90;;;;;;4957993;28;20290;-67
2022/01/26 08:02:49;;;;;;;72.57;27.42;;;3.70;99.90;;;;;;4951456;28;20057;-67
2022/01/26 08:05:16;;;;;;;70.97;27.17;;;3.70;99.90;;;;;;4959606;28;20050;-67
2022/01/26 08:07:42;;;;;;;77.05;27.05;;;3.80;99.90;;;;;;4956081;28;20047;-68
2022/01/26 08:10:09;;;;;;;78.07;27.45;;;3.80;99.90;;;;;;4949495;28;20101;-67
2022/01/26 08:12:37;;;;;;;76.13;27.13;;;3.80;99.90;;;;;;4953554;28;20051;-67
2022/01/26 08:15:03;;;;;;;69.65;25.83;;;3.80;99.90;;;;;;4951376;28;20035;-67
2022/01/26 08:17:29;;;;;;;72.80;26.77;;;3.80;99.90;;;;;;4935857;28;20058;-67
2022/01/26 08:19:56;;;;;;;62.33;26.00;;;3.80;99.90;;;;;;4957123;28;20435;-67
2022/01/26 08:22:24;;;;;;;66.45;26.10;;;3.80;99.90;;;;;;4957142;28;20038;-67
2022/01/26 08:24:50;;;;;;;69.93;24.80;;;3.80;99.90;;;;;;4956988;28;20055;-67
2022/01/26 08:27:18;;;;;;;70.47;26.17;;;3.80;99.90;;;;;;4961746;28;20138;-67
2022/01/26 08:29:50;;;;;;;62.50;23.73;;;3.90;99.90;;;;;;4961439;28;20134;-67
2022/01/26 08:32:16;;;;;;;69.80;23.67;;;3.90;99.90;;;;;;4960026;28;20499;-67
2022/01/26 08:34:43;;;;;;;61.13;22.88;;;3.90;99.90;;;;;;4960500;28;20511;-70
2022/01/26 08:37:09;;;;;;;64.70;25.30;;;4.00;99.90;;;;;;4961281;28;20034;-68
2022/01/26 08:39:36;;;;;;;65.13;25.15;;;3.90;99.90;;;;;;4956602;28;20043;-68
2022/01/26 08:42:03;;;;;;;61.75;25.73;;;4.00;99.90;;;;;;4953561;28;20568;-67
2022/01/26 08:44:28;;;;;;;62.90;25.17;;;4.00;99.90;;;;;;4945590;28;20090;-68
2022/01/26 08:46:55;;;;;;;65.23;24.07;;;4.00;99.90;;;;;;4957724;28;20545;-67
2022/01/26 08:49:22;;;;;;;65.15;24.92;;;4.00;99.90;;;;;;4958558;28;20322;-67
2022/01/26 08:51:50;;;;;;;65.15;24.98;;;4.00;99.90;;;;;;4960595;28;20035;-67
2022/01/26 08:54:16;;;;;;;64.25;24.48;;;4.00;99.90;;;;;;4953375;28;20031;-67
2022/01/26 08:56:43;;;;;;;67.07;24.70;;;4.10;99.90;;;;;;4955365;28;20035;-67
2022/01/26 08:59:09;;;;;;;63.60;24.08;;;4.10;99.90;;;;;;4959936;28;20083;-68
2022/01/26 09:01:34;;;;;;;62.10;24.47;;;4.10;99.90;;;;;;4962981;28;20089;-67
2022/01/26 09:04:00;;;;;;;57.70;22.83;;;4.10;99.90;;;;;;4960301;28;20138;-68
2022/01/26 09:06:25;;;;;;;65.50;23.47;;;4.10;99.90;;;;;;4956519;28;20521;-67
2022/01/26 09:08:59;;;;;;;70.37;26.00;;;4.10;99.90;;;;;;4957648;28;20122;-66
2022/01/26 09:11:25;;;;;;;66.80;24.90;;;4.10;99.90;;;;;;4954313;28;20051;-66
2022/01/26 09:13:57;;;;;;;54.60;22.50;;;4.10;99.90;;;;;;4961023;28;20533;-67
2022/01/26 09:16:24;;;;;;;59.83;22.92;;;4.20;99.90;;;;;;4963336;28;20038;-67
2022/01/26 09:18:53;;;;;;;55.97;22.13;;;4.20;99.90;;;;;;4954436;28;20086;-68
2022/01/26 09:21:21;;;;;;;66.88;24.58;;;4.20;99.90;;;;;;4958386;28;20043;-67
2022/01/26 09:23:46;;;;;;;62.30;23.60;;;4.10;99.90;;;;;;4955886;28;20097;-67
2022/01/26 09:26:12;;;;;;;67.83;26.13;;;4.20;99.90;;;;;;4958536;28;20433;-67
2022/01/26 09:28:38;;;;;;;74.27;26.80;;;4.20;99.90;;;;;;4961763;28;20306;-66
2022/01/26 09:31:03;;;;;;;63.07;25.23;;;4.30;99.90;;;;;;4950365;28;20057;-67
2022/01/26 09:33:29;;;;;;;69.30;24.83;;;4.30;99.90;;;;;;4961715;28;20093;-66
2022/01/26 09:35:55;;;;;;;69.17;25.13;;;4.30;99.90;;;;;;4960402;28;20046;-66
2022/01/26 09:38:20;;;;;;;71.40;26.65;;;4.30;99.90;;;;;;4959583;28;20049;-66
2022/01/26 09:40:48;;;;;;;73.13;27.50;;;4.30;99.90;;;;;;4957584;28;20066;-66
2022/01/26 09:43:14;;;;;;;65.43;24.45;;;4.40;99.90;;;;;;4958795;28;20361;-67
2022/01/26 09:45:40;;;;;;;66.03;25.73;;;4.40;99.90;;;;;;4954745;28;20045;-65
2022/01/26 09:48:06;;;;;;;67.17;25.80;;;4.40;99.90;;;;;;4969397;28;20042;-66
2022/01/26 09:50:33;;;;;;;69.18;25.65;;;4.30;99.90;;;;;;4958329;28;20600;-66
2022/01/26 09:52:59;;;;;;;70.47;26.17;;;4.40;99.90;;;;;;4961108;28;20550;-67
2022/01/26 09:55:26;;;;;;;70.97;25.65;;;4.40;99.90;;;;;;4955437;28;20438;-66
2022/01/26 09:57:57;;;;;;;64.60;25.50;;;4.50;99.90;;;;;;4959614;28;20042;-67
2022/01/26 10:00:24;;;;;;;65.95;23.80;;;4.50;99.90;;;;;;4954528;28;20467;-67
2022/01/26 10:03:16;;;;;;;;;;;4.50;99.90;;;;;;4952913;28;20180;-67
2022/01/26 10:05:44;;;;;;;63.60;23.30;;;4.50;99.90;;;;;;4957793;28;19918;-67
2022/01/26 10:19:05;;;;;;;59.88;22.33;;;4.60;99.90;;;;;;4961361;28;20481;-69
2022/01/26 10:21:31;;;;;;;61.88;23.67;;;4.60;99.90;;;;;;4955096;28;20096;-68
2022/01/26 10:24:08;;;;;;;56.40;20.77;;;4.60;99.90;;;;;;4958268;28;20038;-67
2022/01/26 10:26:34;;;;;;;60.72;21.10;;;4.60;99.90;;;;;;4962267;28;20657;-68
2022/01/26 10:29:02;;;;;;;56.83;18.83;;;4.60;99.90;;;;;;4962219;28;20125;-68
2022/01/26 10:31:38;;;;;;;57.67;21.85;;;4.70;99.90;;;;;;4954037;28;20131;-68
2022/01/26 10:34:12;;;;;;;60.10;20.67;;;4.70;99.90;;;;;;4961984;28;20045;-68
2022/01/26 10:36:39;;;;;;;54.90;18.83;;;4.70;99.90;;;;;;4959858;28;20035;-67
2022/01/26 10:39:08;;;;;;;53.45;20.58;;;4.70;99.90;;;;;;4960762;28;20043;-68
2022/01/26 10:41:35;;;;;;;53.83;20.45;;;4.70;99.90;;;;;;4975556;28;20534;-67
2022/01/26 10:44:02;;;;;;;57.28;20.42;;;4.70;99.90;;;;;;4963750;28;20047;-68
2022/01/26 10:46:38;;;;;;;58.38;20.45;;;4.70;99.90;;;;;;4960850;28;20495;-66
2022/01/26 10:54:12;;;;;;;65.13;22.30;;;4.70;99.90;;;;;;4959706;28;20085;-66
2022/01/26 10:56:38;;;;;;;55.65;20.17;;;4.70;99.90;;;;;;4966347;28;20388;-66
2022/01/26 10:59:04;;;;;;;61.58;19.58;;;4.70;99.90;;;;;;4956885;28;20046;-66
2022/01/26 11:01:30;;;;;;;57.03;21.07;;;4.80;99.90;;;;;;4960486;28;20427;-67
2022/01/26 11:03:56;;;;;;;59.50;21.47;;;4.80;99.90;;;;;;4959060;28;20039;-67
2022/01/26 11:06:21;;;;;;;53.37;21.73;;;4.80;99.90;;;;;;4955741;28;20035;-67
2022/01/26 11:08:48;;;;;;;64.37;21.77;;;4.70;99.90;;;;;;4963564;28;20484;-66
2022/01/26 11:11:23;;;;;;;53.97;20.92;;;4.70;99.90;;;;;;4957456;28;20039;-67
2022/01/26 11:13:49;;;;;;;54.50;20.63;;;4.70;99.90;;;;;;4958636;28;20622;-67
2022/01/26 11:16:18;;;;;;;57.77;21.33;;;4.70;99.90;;;;;;4959419;28;20137;-67
2022/01/26 11:18:58;;;;;;;59.70;22.50;;;4.70;99.90;;;;;;4957512;28;20034;-66
2022/01/26 11:21:36;;;;;;;63.63;22.25;;;4.60;99.90;;;;;;4960036;28;20043;-66
2022/01/26 11:24:18;;;;;;;60.75;22.33;;;4.60;99.90;;;;;;4955567;28;20050;-65
2022/01/26 11:26:46;;;;;;;59.33;21.02;;;4.60;99.90;;;;;;4964017;28;20126;-65
2022/01/26 11:29:25;;;;;;;57.47;19.70;;;4.60;99.90;;;;;;4958723;28;20133;-66
2022/01/26 11:32:07;;;;;;;54.30;20.25;;;4.60;99.90;;;;;;4964465;28;20054;-67
2022/01/26 11:34:34;;;;;;;57.30;20.83;;;4.60;99.90;;;;;;4962022;28;20051;-66
2022/01/26 11:37:03;;;;;;;55.72;20.45;;;4.70;99.90;;;;;;4961945;28;20169;-68
2022/01/26 11:45:09;;;;;;;70.25;23.98;;;4.70;99.90;;;;;;4967998;28;20042;-66
2022/01/26 11:47:40;;;;;;;63.20;20.25;;;4.70;99.90;;;;;;4964332;28;20094;-67
2022/01/26 11:50:12;;;;;;;54.55;20.42;;;4.70;99.90;;;;;;4963167;28;20042;-66
2022/01/26 11:52:39;;;;;;;60.20;21.17;;;4.70;99.90;;;;;;4962203;28;20541;-66
2022/01/26 11:55:31;;;;;;;54.58;21.38;;;4.70;99.90;;;;;;4962354;28;20075;-66
2022/01/26 11:58:43;;;;;;;60.28;20.20;;;4.80;99.90;;;;;;4959357;28;20043;-66
2022/01/26 12:03:55;;;;;;;58.83;20.33;;;4.70;99.90;;;;;;4960397;28;20083;-66
2022/01/26 12:06:36;;;;;;;58.35;20.27;;;4.80;99.90;;;;;;4964302;28;20035;-67
2022/01/26 12:09:04;;;;;;;50.85;19.55;;;4.80;99.90;;;;;;4964118;28;20493;-66
2022/01/26 12:11:30;;;;;;;56.60;20.73;;;4.80;99.90;;;;;;4958955;28;20078;-69
2022/01/26 12:14:00;;;;;;;54.73;20.10;;;4.80;99.90;;;;;;4960885;28;20078;-66
2022/01/26 12:16:42;;;;;;;59.05;20.10;;;4.90;99.90;;;;;;4961341;28;20511;-66
2022/01/26 12:38:33;;;;;;;51.92;18.33;;;5.20;99.90;;;;;;4964539;28;20134;-67
2022/01/26 12:41:17;;;;;;;48.22;19.05;;;5.20;99.90;;;;;;4963772;28;20093;-67
2022/01/26 12:44:07;;;;;;;43.40;17.23;;;5.20;99.90;;;;;;4956328;28;20078;-66
2022/01/26 12:46:35;;;;;;;40.83;17.98;;;5.20;99.90;;;;;;4962328;28;20181;-66
2022/01/26 12:49:10;;;;;;;41.13;17.48;;;5.20;99.90;;;;;;4958571;28;20035;-66
2022/01/26 12:51:42;;;;;;;44.22;18.10;;;5.30;99.90;;;;;;4956736;28;20103;-66
2022/01/26 12:54:08;;;;;;;52.10;18.73;;;5.30;99.90;;;;;;4957845;28;20145;-67
2022/01/26 12:56:33;;;;;;;47.13;17.67;;;5.30;99.90;;;;;;4988623;23;20130;-70
2022/01/26 12:59:07;;;;;;;48.97;18.27;;;5.40;99.90;;;;;;4975377;28;20092;-70
2022/01/26 13:01:33;;;;;;;51.72;19.40;;;5.40;99.90;;;;;;4971173;28;20047;-70
2022/01/26 13:04:06;;;;;;;53.65;19.90;;;5.40;99.90;;;;;;4969902;28;20069;-70
2022/01/26 13:06:35;;;;;;;51.03;20.20;;;5.50;99.90;;;;;;4970733;28;20081;-70
2022/01/26 13:09:15;;;;;;;52.00;18.27;;;5.50;99.90;;;;;;4971887;28;20320;-70
2022/01/26 13:11:40;;;;;;;53.05;20.30;;;5.50;99.90;;;;;;4975816;28;20483;-70
2022/01/26 13:14:20;;;;;;;46.63;19.43;;;5.50;99.90;;;;;;4962701;28;20129;-70
2022/01/26 13:17:05;;;;;;;50.42;19.83;;;5.50;99.90;;;;;;4961819;28;20237;-70
2022/01/26 13:25:04;;;;;;;46.50;17.48;;;5.50;99.90;;;;;;4968765;28;20046;-70
2022/01/26 13:27:50;;;;;;;46.97;18.73;;;5.50;99.90;;;;;;4978640;28;20616;-69
2022/01/26 13:38:16;;;;;;;41.03;18.35;;;5.50;99.90;;;;;;4971588;28;20487;-70
2022/01/26 13:41:09;;;;;;;53.15;19.02;;;5.50;99.90;;;;;;4962032;28;20487;-70
2022/01/26 13:44:05;;;;;;;45.20;18.42;;;5.50;99.90;;;;;;4975919;28;20046;-70
2022/01/26 13:49:19;;;;;;;54.88;18.55;;;5.50;99.90;;;;;;4981011;28;20047;-70
2022/01/26 13:57:13;;;;;;;37.72;15.80;;;5.50;99.90;;;;;;4966856;28;20069;-70
2022/01/26 13:59:47;;;;;;;43.95;17.02;;;5.50;99.90;;;;;;4969522;28;20152;-70
2022/01/26 14:02:13;;;;;;;48.20;17.77;;;5.50;99.90;;;;;;4970431;28;20101;-70
2022/01/26 14:04:40;;;;;;;45.07;15.97;;;5.40;99.90;;;;;;4969833;28;20495;-70
2022/01/26 14:07:05;;;;;;;;;;;5.50;99.90;;;;;;4970419;28;20444;-70
2022/01/26 14:09:31;;;;;;;40.95;15.75;;;5.50;99.90;;;;;;4968309;28;19918;-71
2022/01/26 14:11:59;;;;;;;48.30;16.67;;;5.50;99.90;;;;;;4955579;28;20073;-70
2022/01/26 14:14:31;;;;;;;46.03;17.20;;;5.50;99.90;;;;;;4970212;28;20038;-70
2022/01/26 14:16:59;;;;;;;47.75;17.63;;;5.50;99.90;;;;;;4965188;28;20062;-70
2022/01/26 14:19:38;;;;;;;47.42;16.70;;;5.50;99.90;;;;;;4968742;28;20043;-71
2022/01/26 14:27:34;;;;;;;42.25;16.70;;;5.60;99.90;;;;;;4951054;28;20042;-70
2022/01/26 14:30:21;;;;;;;45.47;16.88;;;5.70;99.90;;;;;;4971299;28;20039;-70
2022/01/26 14:33:09;;;;;;;37.13;14.77;;;5.70;99.90;;;;;;4965994;28;20073;-70
2022/01/26 15:22:40;;;;;;;51.10;16.90;;;5.80;99.90;;;;;;4976416;28;20245;-70
2022/01/26 15:33:16;;;;;;;40.70;16.05;;;5.80;99.90;;;;;;4971453;28;20038;-70
2022/01/26 16:20:45;;;;;;;44.15;16.05;;;5.80;99.90;;;;;;4969299;28;20050;-70
2022/01/26 16:35:12;;;;;;;46.38;16.52;;;5.80;99.90;;;;;;4972859;28;20050;-73
2022/01/26 17:27:17;;;;;;;34.15;13.80;;;5.90;99.90;;;;;;4971271;28;20046;-72
2022/01/26 18:04:47;;;;;;;37.30;13.75;;;6.00;99.90;;;;;;4976178;28;20054;-70
2022/01/26 18:07:18;;;;;;;34.35;14.18;;;6.00;99.90;;;;;;4974724;28;20166;-72
2022/01/26 18:25:52;;;;;;;;;;;6.00;99.90;;;;;;4901276;29;20452;-67
2022/01/26 18:32:15;;;;;;;;;;;6.10;99.90;;;;;;4970407;28;20055;-67
2022/01/26 18:51:06;;;;;;;37.22;13.20;;;6.30;99.90;;;;;;4977618;28;20042;-68
2022/01/26 18:53:32;;;;;;;30.13;12.73;;;6.30;99.90;;;;;;4974919;28;20038;-67
2022/01/26 18:55:58;;;;;;;27.47;12.00;;;6.30;99.90;;;;;;4982066;28;20045;-67
2022/01/26 18:58:23;;;;;;;35.87;12.90;;;6.30;99.90;;;;;;4976778;28;20042;-67
2022/01/26 19:00:49;;;;;;;33.60;12.30;;;6.30;99.90;;;;;;4971481;28;20039;-68
2022/01/26 19:03:15;;;;;;;36.53;12.73;;;6.30;99.90;;;;;;4972142;28;20041;-67
2022/01/26 19:05:44;;;;;;;34.60;13.47;;;6.30;99.90;;;;;;4971902;28;20110;-67
2022/01/26 19:08:10;;;;;;;37.70;12.25;;;6.30;99.90;;;;;;4981426;28;20064;-67
2022/01/26 19:10:36;;;;;;;31.90;13.17;;;6.30;99.90;;;;;;4971489;28;20046;-67
2022/01/26 19:13:02;;;;;;;38.23;12.10;;;6.30;99.90;;;;;;4963931;28;21229;-68
2022/01/26 19:15:30;;;;;;;29.63;12.40;;;6.40;99.90;;;;;;4971177;28;20039;-67
2022/01/26 19:18:22;;;;;;;33.78;12.27;;;6.40;99.90;;;;;;4974474;28;20404;-68
2022/01/26 19:20:59;;;;;;;27.83;11.35;;;6.30;99.90;;;;;;4973312;28;20046;-68
2022/01/26 19:23:45;;;;;;;37.95;13.25;;;6.30;99.90;;;;;;4977044;28;20046;-67
2022/01/26 19:26:18;;;;;;;34.60;13.63;;;6.40;99.90;;;;;;4977295;28;20670;-67
2022/01/26 19:28:50;;;;;;;29.17;11.55;;;6.30;99.90;;;;;;4975178;28;20058;-67
2022/01/26 19:50:44;;;;;;;29.73;12.32;;;6.40;99.90;;;;;;4979562;28;20035;-67
2022/01/26 19:53:02;;;;;;;27.60;10.75;;;6.40;99.90;;;;;;4969424;28;20050;-67